Turbo, Colombia

2:35 AM COT on July 14, 2014 (GMT -0500)
Antonio Roldan Betancourt (SKLC) Elev 66 ft | 7.82 °N, 76.72 °W | Change Station

Current weather conditions updated 8 hours ago

Thunderstorm
Thunderstorm
74 °F
Feels Like 74 °F
N
1
Wind Variable Wind from NNE
Gusts mph

Today is forecast to be Much Cooler than yesterday. Thunderstorms.

Today
High -- | Low -- °F
--% Chance of Precip.
Yesterday
High -- | Low -- °F
Precip. -- in
5:56 AM 6:29 PM
Waning Gibbous, 95% visible
Pressure 29.76 in
Visibility 3.1 miles
Clouds Scattered Clouds 1500 ft
Mostly Cloudy 10000 ft
Dew Point 73 °F
Humidity 97%
Rainfall 0.00 in
Snow Depth Not available.
UV 0 out of 12
Pollen Not available.
Air Quality Not available.
Flu Activity Not available.
METAR SKLC 132300Z 36010KT 5000 TSRA SCT015CB BKN100 28/27 A2976 RMK CB/E/NE

More Conditions Fewer Conditions

Pressure 29.76 in
Visibility 3.1 miles
Clouds Scattered Clouds 1500 ft
Mostly Cloudy 10000 ft
Dew Point 73 °F
Humidity 97%
Rainfall 0.00 in
Snow Depth Not available.
UV 0 out of 12
Pollen Not available.
Air Quality Not available.
Flu Activity Not available.
METAR SKLC 132300Z 36010KT 5000 TSRA SCT015CB BKN100 28/27 A2976 RMK CB/E/NE

More Conditions Fewer Conditions

10-Day Weather Forecast

Almanac

Astronomy

Jul. 14, 2014 Rise Set
Actual Time 5:56 AM COT 6:29 PM COT
Civil Twilight 5:33 AM COT 6:51 PM COT
Nautical Twilight 5:07 AM COT 7:18 PM COT
Astronomical Twilight 4:40 AM COT 7:45 PM COT
Moon 8:40 PM COT 8:00 AM COT
Length of Visible Light 13h 18m
Length of Day
12h 33m
Tomorrow will be 0m 13s shorter.
Waning Gibbous, 95% of the Moon is Illuminated
Today
Waning Gibbous
Jul 18
Last Quarter
Jul 26
New
Aug 3
First Quarter
Aug 10
Full

Yesterday's Extremes

Country Highs Country Lows

Community

WunderPhotos

Upload Photos

1,733,572 photos uploaded!

Nearby

Snow Depth

Not available.

Earthquake Activity

City Distance Mag. Time & Date
No recent earthquake activity has been reported nearby.
Minimum magnitude displayed is 2.5.

Coastal Water Temperatures

Place Temperature
No Stations Reporting

Nearby Weather Stations

There are no personal weather stations in this area.